sensor_id;sensor_type;location;lat;lon;timestamp;P1;durP1;ratioP1;P2;durP2;ratioP2
24357;SDS011;13668;52.154;5.580;2023-05-19T00:01:54;1.55;;;1.45;;
24357;SDS011;13668;52.154;5.580;2023-05-19T00:04:21;5.03;;;2.00;;
24357;SDS011;13668;52.154;5.580;2023-05-19T00:06:48;1.48;;;1.30;;
24357;SDS011;13668;52.154;5.580;2023-05-19T00:09:15;2.45;;;1.30;;
24357;SDS011;13668;52.154;5.580;2023-05-19T00:11:41;1.35;;;1.15;;
24357;SDS011;13668;52.154;5.580;2023-05-19T00:14:07;4.50;;;1.83;;
24357;SDS011;13668;52.154;5.580;2023-05-19T00:16:34;2.55;;;1.30;;
24357;SDS011;13668;52.154;5.580;2023-05-19T00:19:02;2.50;;;1.50;;
24357;SDS011;13668;52.154;5.580;2023-05-19T00:21:29;3.05;;;2.05;;
24357;SDS011;13668;52.154;5.580;2023-05-19T00:23:55;1.80;;;1.65;;
24357;SDS011;13668;52.154;5.580;2023-05-19T00:26:21;1.83;;;1.58;;
24357;SDS011;13668;52.154;5.580;2023-05-19T00:28:48;1.73;;;1.63;;
24357;SDS011;13668;52.154;5.580;2023-05-19T00:31:14;3.35;;;1.75;;
24357;SDS011;13668;52.154;5.580;2023-05-19T00:33:40;1.70;;;1.60;;
24357;SDS011;13668;52.154;5.580;2023-05-19T00:36:06;2.13;;;1.20;;
24357;SDS011;13668;52.154;5.580;2023-05-19T00:38:35;2.95;;;1.73;;
24357;SDS011;13668;52.154;5.580;2023-05-19T00:41:02;3.85;;;2.22;;
24357;SDS011;13668;52.154;5.580;2023-05-19T00:43:28;4.28;;;1.67;;
24357;SDS011;13668;52.154;5.580;2023-05-19T00:45:54;4.35;;;1.90;;
24357;SDS011;13668;52.154;5.580;2023-05-19T00:48:20;2.45;;;1.58;;
24357;SDS011;13668;52.154;5.580;2023-05-19T00:50:47;3.10;;;2.35;;
24357;SDS011;13668;52.154;5.580;2023-05-19T00:53:13;1.75;;;1.65;;
24357;SDS011;13668;52.154;5.580;2023-05-19T00:55:39;2.05;;;1.63;;
24357;SDS011;13668;52.154;5.580;2023-05-19T00:58:06;1.55;;;1.45;;
24357;SDS011;13668;52.154;5.580;2023-05-19T01:00:33;1.77;;;1.35;;
24357;SDS011;13668;52.154;5.580;2023-05-19T01:03:00;2.30;;;1.42;;
24357;SDS011;13668;52.154;5.580;2023-05-19T01:05:26;4.22;;;1.75;;
24357;SDS011;13668;52.154;5.580;2023-05-19T01:07:52;4.25;;;2.33;;
24357;SDS011;13668;52.154;5.580;2023-05-19T01:10:20;2.13;;;1.30;;
24357;SDS011;13668;52.154;5.580;2023-05-19T01:12:46;2.15;;;1.95;;
24357;SDS011;13668;52.154;5.580;2023-05-19T01:15:12;2.65;;;1.80;;
24357;SDS011;13668;52.154;5.580;2023-05-19T01:17:53;3.00;;;1.65;;
24357;SDS011;13668;52.154;5.580;2023-05-19T01:20:21;1.77;;;1.63;;
24357;SDS011;13668;52.154;5.580;2023-05-19T01:31:04;1.88;;;1.55;;
24357;SDS011;13668;52.154;5.580;2023-05-19T01:33:32;2.08;;;1.80;;
24357;SDS011;13668;52.154;5.580;2023-05-19T01:35:59;2.20;;;1.83;;
24357;SDS011;13668;52.154;5.580;2023-05-19T01:38:27;4.57;;;1.88;;
24357;SDS011;13668;52.154;5.580;2023-05-19T01:40:54;2.15;;;1.75;;
24357;SDS011;13668;52.154;5.580;2023-05-19T01:43:21;2.47;;;1.98;;
24357;SDS011;13668;52.154;5.580;2023-05-19T01:45:48;3.03;;;1.88;;
24357;SDS011;13668;52.154;5.580;2023-05-19T01:48:15;4.40;;;1.83;;
24357;SDS011;13668;52.154;5.580;2023-05-19T01:50:42;3.85;;;1.60;;
24357;SDS011;13668;52.154;5.580;2023-05-19T01:53:08;1.67;;;1.45;;
24357;SDS011;13668;52.154;5.580;2023-05-19T01:55:45;3.40;;;1.90;;
24357;SDS011;13668;52.154;5.580;2023-05-19T02:03:37;2.00;;;1.60;;
24357;SDS011;13668;52.154;5.580;2023-05-19T02:09:01;3.28;;;1.70;;
24357;SDS011;13668;52.154;5.580;2023-05-19T02:11:34;3.03;;;1.83;;
24357;SDS011;13668;52.154;5.580;2023-05-19T02:14:02;5.82;;;2.47;;
24357;SDS011;13668;52.154;5.580;2023-05-19T02:16:30;2.50;;;2.28;;
24357;SDS011;13668;52.154;5.580;2023-05-19T02:18:58;1.98;;;1.85;;
24357;SDS011;13668;52.154;5.580;2023-05-19T02:21:24;3.03;;;2.08;;
24357;SDS011;13668;52.154;5.580;2023-05-19T02:23:50;3.50;;;1.75;;
24357;SDS011;13668;52.154;5.580;2023-05-19T02:26:16;2.17;;;1.85;;
24357;SDS011;13668;52.154;5.580;2023-05-19T02:28:42;4.55;;;2.38;;
24357;SDS011;13668;52.154;5.580;2023-05-19T02:31:08;3.88;;;1.63;;
24357;SDS011;13668;52.154;5.580;2023-05-19T02:33:34;3.90;;;2.13;;
24357;SDS011;13668;52.154;5.580;2023-05-19T02:36:00;3.95;;;2.03;;
24357;SDS011;13668;52.154;5.580;2023-05-19T02:38:27;6.57;;;1.70;;
24357;SDS011;13668;52.154;5.580;2023-05-19T02:40:52;2.05;;;1.85;;
24357;SDS011;13668;52.154;5.580;2023-05-19T02:43:18;2.80;;;1.60;;
24357;SDS011;13668;52.154;5.580;2023-05-19T02:45:44;3.55;;;1.98;;
24357;SDS011;13668;52.154;5.580;2023-05-19T02:48:10;2.63;;;2.42;;
24357;SDS011;13668;52.154;5.580;2023-05-19T02:50:36;2.97;;;2.20;;
24357;SDS011;13668;52.154;5.580;2023-05-19T02:53:03;3.42;;;2.38;;
24357;SDS011;13668;52.154;5.580;2023-05-19T02:55:29;5.82;;;2.05;;
24357;SDS011;13668;52.154;5.580;2023-05-19T02:57:55;2.47;;;1.98;;
24357;SDS011;13668;52.154;5.580;2023-05-19T03:00:21;4.00;;;2.13;;
24357;SDS011;13668;52.154;5.580;2023-05-19T03:02:47;3.78;;;2.13;;
24357;SDS011;13668;52.154;5.580;2023-05-19T03:05:13;4.18;;;2.63;;
24357;SDS011;13668;52.154;5.580;2023-05-19T03:07:39;2.47;;;2.05;;
24357;SDS011;13668;52.154;5.580;2023-05-19T03:10:05;3.63;;;1.75;;
24357;SDS011;13668;52.154;5.580;2023-05-19T03:12:32;3.22;;;2.70;;
24357;SDS011;13668;52.154;5.580;2023-05-19T03:14:58;4.00;;;1.83;;
24357;SDS011;13668;52.154;5.580;2023-05-19T03:17:24;3.00;;;2.03;;
24357;SDS011;13668;52.154;5.580;2023-05-19T03:19:51;3.97;;;2.40;;
24357;SDS011;13668;52.154;5.580;2023-05-19T03:22:17;3.17;;;1.95;;
24357;SDS011;13668;52.154;5.580;2023-05-19T03:24:44;2.92;;;2.08;;
24357;SDS011;13668;52.154;5.580;2023-05-19T03:27:11;3.78;;;2.05;;
24357;SDS011;13668;52.154;5.580;2023-05-19T03:29:37;4.35;;;2.33;;
24357;SDS011;13668;52.154;5.580;2023-05-19T03:32:03;3.13;;;2.58;;
24357;SDS011;13668;52.154;5.580;2023-05-19T03:34:29;3.80;;;2.45;;
24357;SDS011;13668;52.154;5.580;2023-05-19T03:36:56;5.13;;;2.30;;
24357;SDS011;13668;52.154;5.580;2023-05-19T03:39:22;6.80;;;2.28;;
24357;SDS011;13668;52.154;5.580;2023-05-19T03:41:48;2.28;;;1.67;;
24357;SDS011;13668;52.154;5.580;2023-05-19T03:44:14;3.75;;;2.10;;
24357;SDS011;13668;52.154;5.580;2023-05-19T03:46:40;4.45;;;2.45;;
24357;SDS011;13668;52.154;5.580;2023-05-19T03:49:06;4.38;;;2.42;;
24357;SDS011;13668;52.154;5.580;2023-05-19T03:51:32;5.72;;;2.47;;
24357;SDS011;13668;52.154;5.580;2023-05-19T03:53:58;3.35;;;2.20;;
24357;SDS011;13668;52.154;5.580;2023-05-19T03:56:24;5.88;;;1.95;;
24357;SDS011;13668;52.154;5.580;2023-05-19T03:58:51;7.57;;;2.88;;
24357;SDS011;13668;52.154;5.580;2023-05-19T04:01:18;3.65;;;2.67;;
24357;SDS011;13668;52.154;5.580;2023-05-19T04:03:44;4.50;;;2.15;;
24357;SDS011;13668;52.154;5.580;2023-05-19T04:06:10;4.13;;;2.15;;
24357;SDS011;13668;52.154;5.580;2023-05-19T04:08:37;2.78;;;2.20;;
24357;SDS011;13668;52.154;5.580;2023-05-19T04:11:03;5.57;;;2.72;;
24357;SDS011;13668;52.154;5.580;2023-05-19T04:13:29;3.97;;;2.42;;
24357;SDS011;13668;52.154;5.580;2023-05-19T04:15:55;6.80;;;2.58;;
24357;SDS011;13668;52.154;5.580;2023-05-19T04:18:21;5.35;;;2.92;;
24357;SDS011;13668;52.154;5.580;2023-05-19T04:20:47;3.97;;;2.78;;
24357;SDS011;13668;52.154;5.580;2023-05-19T04:23:13;4.75;;;2.60;;
24357;SDS011;13668;52.154;5.580;2023-05-19T04:25:39;3.63;;;2.10;;
24357;SDS011;13668;52.154;5.580;2023-05-19T04:28:06;5.10;;;2.88;;
24357;SDS011;13668;52.154;5.580;2023-05-19T04:30:32;4.43;;;2.30;;
24357;SDS011;13668;52.154;5.580;2023-05-19T04:32:58;3.35;;;2.20;;
24357;SDS011;13668;52.154;5.580;2023-05-19T04:35:25;4.03;;;2.58;;
24357;SDS011;13668;52.154;5.580;2023-05-19T04:37:51;2.78;;;2.22;;
24357;SDS011;13668;52.154;5.580;2023-05-19T04:40:20;4.35;;;2.53;;
24357;SDS011;13668;52.154;5.580;2023-05-19T04:42:47;7.32;;;2.85;;
24357;SDS011;13668;52.154;5.580;2023-05-19T04:45:13;5.30;;;3.20;;
24357;SDS011;13668;52.154;5.580;2023-05-19T04:47:40;3.80;;;2.53;;
24357;SDS011;13668;52.154;5.580;2023-05-19T04:50:06;6.35;;;2.78;;
24357;SDS011;13668;52.154;5.580;2023-05-19T04:52:33;5.03;;;3.08;;
24357;SDS011;13668;52.154;5.580;2023-05-19T04:54:59;3.75;;;3.03;;
24357;SDS011;13668;52.154;5.580;2023-05-19T04:57:25;5.18;;;3.15;;
24357;SDS011;13668;52.154;5.580;2023-05-19T04:59:51;4.53;;;2.45;;
24357;SDS011;13668;52.154;5.580;2023-05-19T05:02:23;5.43;;;3.38;;
24357;SDS011;13668;52.154;5.580;2023-05-19T05:04:58;5.17;;;3.47;;
24357;SDS011;13668;52.154;5.580;2023-05-19T05:07:24;8.07;;;3.33;;
24357;SDS011;13668;52.154;5.580;2023-05-19T05:09:50;8.23;;;3.72;;
24357;SDS011;13668;52.154;5.580;2023-05-19T05:12:17;5.68;;;3.47;;
24357;SDS011;13668;52.154;5.580;2023-05-19T05:14:43;4.85;;;3.28;;
24357;SDS011;13668;52.154;5.580;2023-05-19T05:17:10;6.25;;;2.97;;
24357;SDS011;13668;52.154;5.580;2023-05-19T05:19:37;4.05;;;2.75;;
24357;SDS011;13668;52.154;5.580;2023-05-19T05:22:03;4.85;;;3.22;;
24357;SDS011;13668;52.154;5.580;2023-05-19T05:24:30;4.53;;;2.97;;
24357;SDS011;13668;52.154;5.580;2023-05-19T05:26:56;7.00;;;2.90;;
24357;SDS011;13668;52.154;5.580;2023-05-19T05:29:23;4.65;;;2.92;;
24357;SDS011;13668;52.154;5.580;2023-05-19T05:31:49;7.50;;;3.13;;
24357;SDS011;13668;52.154;5.580;2023-05-19T05:34:15;6.32;;;2.63;;
24357;SDS011;13668;52.154;5.580;2023-05-19T05:36:41;5.88;;;4.07;;
24357;SDS011;13668;52.154;5.580;2023-05-19T05:39:07;5.65;;;2.95;;
24357;SDS011;13668;52.154;5.580;2023-05-19T05:41:32;6.40;;;3.45;;
24357;SDS011;13668;52.154;5.580;2023-05-19T05:44:02;4.82;;;3.15;;
24357;SDS011;13668;52.154;5.580;2023-05-19T05:46:28;7.85;;;3.78;;
24357;SDS011;13668;52.154;5.580;2023-05-19T05:48:54;5.20;;;3.20;;
24357;SDS011;13668;52.154;5.580;2023-05-19T05:51:20;7.05;;;3.15;;
24357;SDS011;13668;52.154;5.580;2023-05-19T05:53:49;4.57;;;2.83;;
24357;SDS011;13668;52.154;5.580;2023-05-19T05:56:16;3.80;;;2.53;;
24357;SDS011;13668;52.154;5.580;2023-05-19T05:58:42;5.38;;;3.38;;
24357;SDS011;13668;52.154;5.580;2023-05-19T06:01:08;3.45;;;2.22;;
24357;SDS011;13668;52.154;5.580;2023-05-19T06:03:40;4.25;;;2.38;;
24357;SDS011;13668;52.154;5.580;2023-05-19T06:06:09;3.17;;;2.60;;
24357;SDS011;13668;52.154;5.580;2023-05-19T06:08:35;3.20;;;2.15;;
24357;SDS011;13668;52.154;5.580;2023-05-19T06:11:01;3.33;;;2.10;;
24357;SDS011;13668;52.154;5.580;2023-05-19T06:13:36;2.90;;;2.10;;
24357;SDS011;13668;52.154;5.580;2023-05-19T06:16:03;2.40;;;2.20;;
24357;SDS011;13668;52.154;5.580;2023-05-19T06:18:29;2.20;;;2.00;;
24357;SDS011;13668;52.154;5.580;2023-05-19T06:20:55;2.45;;;2.10;;
24357;SDS011;13668;52.154;5.580;2023-05-19T06:23:20;5.82;;;2.30;;
24357;SDS011;13668;52.154;5.580;2023-05-19T06:25:47;5.13;;;2.88;;
24357;SDS011;13668;52.154;5.580;2023-05-19T06:28:13;3.33;;;1.77;;
24357;SDS011;13668;52.154;5.580;2023-05-19T06:30:39;1.67;;;1.58;;
24357;SDS011;13668;52.154;5.580;2023-05-19T06:33:05;3.33;;;1.80;;
24357;SDS011;13668;52.154;5.580;2023-05-19T06:35:31;5.72;;;1.90;;
24357;SDS011;13668;52.154;5.580;2023-05-19T06:37:57;1.50;;;1.38;;
24357;SDS011;13668;52.154;5.580;2023-05-19T06:40:23;2.88;;;1.55;;
24357;SDS011;13668;52.154;5.580;2023-05-19T06:42:49;2.95;;;1.55;;
24357;SDS011;13668;52.154;5.580;2023-05-19T06:45:15;2.05;;;1.73;;
24357;SDS011;13668;52.154;5.580;2023-05-19T06:47:45;1.85;;;1.27;;
24357;SDS011;13668;52.154;5.580;2023-05-19T06:50:11;2.45;;;1.88;;
24357;SDS011;13668;52.154;5.580;2023-05-19T06:52:37;2.05;;;1.67;;
24357;SDS011;13668;52.154;5.580;2023-05-19T06:55:03;2.20;;;1.67;;
24357;SDS011;13668;52.154;5.580;2023-05-19T06:57:29;3.47;;;2.10;;
24357;SDS011;13668;52.154;5.580;2023-05-19T06:59:55;2.67;;;1.50;;
24357;SDS011;13668;52.154;5.580;2023-05-19T07:02:21;1.92;;;1.48;;
24357;SDS011;13668;52.154;5.580;2023-05-19T07:04:47;3.22;;;1.77;;
24357;SDS011;13668;52.154;5.580;2023-05-19T07:07:15;2.38;;;1.35;;
24357;SDS011;13668;52.154;5.580;2023-05-19T07:09:41;1.70;;;1.48;;
24357;SDS011;13668;52.154;5.580;2023-05-19T07:12:07;2.55;;;1.15;;
24357;SDS011;13668;52.154;5.580;2023-05-19T07:14:33;1.13;;;1.02;;
24357;SDS011;13668;52.154;5.580;2023-05-19T07:17:00;1.33;;;1.23;;
24357;SDS011;13668;52.154;5.580;2023-05-19T07:19:26;2.25;;;1.13;;
24357;SDS011;13668;52.154;5.580;2023-05-19T07:21:52;1.88;;;1.08;;
24357;SDS011;13668;52.154;5.580;2023-05-19T07:24:18;5.70;;;0.90;;
24357;SDS011;13668;52.154;5.580;2023-05-19T07:26:45;3.33;;;1.13;;
24357;SDS011;13668;52.154;5.580;2023-05-19T07:29:11;2.00;;;0.98;;
24357;SDS011;13668;52.154;5.580;2023-05-19T07:31:37;3.20;;;1.15;;
24357;SDS011;13668;52.154;5.580;2023-05-19T07:34:03;1.00;;;0.93;;
24357;SDS011;13668;52.154;5.580;2023-05-19T07:36:29;2.42;;;1.17;;
24357;SDS011;13668;52.154;5.580;2023-05-19T07:38:55;1.38;;;0.98;;
24357;SDS011;13668;52.154;5.580;2023-05-19T07:41:21;5.25;;;0.88;;
24357;SDS011;13668;52.154;5.580;2023-05-19T07:43:47;0.90;;;0.90;;
24357;SDS011;13668;52.154;5.580;2023-05-19T07:46:13;1.23;;;0.68;;
24357;SDS011;13668;52.154;5.580;2023-05-19T07:48:39;1.40;;;0.73;;
24357;SDS011;13668;52.154;5.580;2023-05-19T07:51:05;3.03;;;1.25;;
24357;SDS011;13668;52.154;5.580;2023-05-19T07:53:34;1.45;;;0.65;;
24357;SDS011;13668;52.154;5.580;2023-05-19T07:56:00;1.17;;;0.68;;
24357;SDS011;13668;52.154;5.580;2023-05-19T07:58:27;1.30;;;0.77;;
24357;SDS011;13668;52.154;5.580;2023-05-19T08:00:55;1.48;;;0.88;;
24357;SDS011;13668;52.154;5.580;2023-05-19T08:03:22;0.75;;;0.60;;
24357;SDS011;13668;52.154;5.580;2023-05-19T08:05:48;0.98;;;0.50;;
24357;SDS011;13668;52.154;5.580;2023-05-19T08:08:13;1.08;;;0.60;;
24357;SDS011;13668;52.154;5.580;2023-05-19T08:10:43;1.10;;;0.63;;
24357;SDS011;13668;52.154;5.580;2023-05-19T08:13:09;0.60;;;0.50;;
24357;SDS011;13668;52.154;5.580;2023-05-19T08:15:35;1.73;;;0.88;;
24357;SDS011;13668;52.154;5.580;2023-05-19T08:18:01;1.40;;;1.00;;
24357;SDS011;13668;52.154;5.580;2023-05-19T08:20:29;1.30;;;0.50;;
24357;SDS011;13668;52.154;5.580;2023-05-19T08:22:55;1.17;;;0.57;;
24357;SDS011;13668;52.154;5.580;2023-05-19T08:25:21;0.73;;;0.50;;
24357;SDS011;13668;52.154;5.580;2023-05-19T08:27:47;1.48;;;0.65;;
24357;SDS011;13668;52.154;5.580;2023-05-19T08:30:13;1.15;;;0.70;;
24357;SDS011;13668;52.154;5.580;2023-05-19T08:32:39;2.05;;;0.80;;
24357;SDS011;13668;52.154;5.580;2023-05-19T08:35:05;0.77;;;0.47;;
24357;SDS011;13668;52.154;5.580;2023-05-19T08:37:31;0.30;;;0.30;;
24357;SDS011;13668;52.154;5.580;2023-05-19T08:39:57;0.88;;;0.28;;
24357;SDS011;13668;52.154;5.580;2023-05-19T08:42:23;0.68;;;0.60;;
24357;SDS011;13668;52.154;5.580;2023-05-19T08:44:49;3.20;;;1.00;;
24357;SDS011;13668;52.154;5.580;2023-05-19T08:47:15;0.85;;;0.50;;
24357;SDS011;13668;52.154;5.580;2023-05-19T08:49:43;0.65;;;0.52;;
24357;SDS011;13668;52.154;5.580;2023-05-19T08:54:45;0.93;;;0.40;;
24357;SDS011;13668;52.154;5.580;2023-05-19T08:57:12;0.60;;;0.55;;
24357;SDS011;13668;52.154;5.580;2023-05-19T08:59:38;1.48;;;0.70;;
24357;SDS011;13668;52.154;5.580;2023-05-19T09:02:04;0.70;;;0.70;;
24357;SDS011;13668;52.154;5.580;2023-05-19T09:04:31;1.23;;;0.60;;
24357;SDS011;13668;52.154;5.580;2023-05-19T09:06:57;2.70;;;0.65;;
24357;SDS011;13668;52.154;5.580;2023-05-19T09:09:26;0.52;;;0.40;;
24357;SDS011;13668;52.154;5.580;2023-05-19T09:11:52;1.38;;;0.68;;
24357;SDS011;13668;52.154;5.580;2023-05-19T09:14:18;1.25;;;0.65;;
24357;SDS011;13668;52.154;5.580;2023-05-19T09:16:44;1.42;;;0.80;;
24357;SDS011;13668;52.154;5.580;2023-05-19T09:19:13;2.13;;;0.80;;
24357;SDS011;13668;52.154;5.580;2023-05-19T09:21:40;1.73;;;0.70;;
24357;SDS011;13668;52.154;5.580;2023-05-19T09:24:06;0.65;;;0.60;;
24357;SDS011;13668;52.154;5.580;2023-05-19T09:26:37;1.75;;;0.77;;
24357;SDS011;13668;52.154;5.580;2023-05-19T09:29:10;1.48;;;0.57;;
24357;SDS011;13668;52.154;5.580;2023-05-19T09:31:36;1.67;;;0.52;;
24357;SDS011;13668;52.154;5.580;2023-05-19T09:34:02;0.98;;;0.70;;
24357;SDS011;13668;52.154;5.580;2023-05-19T09:36:28;0.50;;;0.45;;
24357;SDS011;13668;52.154;5.580;2023-05-19T09:38:55;1.08;;;0.60;;
24357;SDS011;13668;52.154;5.580;2023-05-19T09:41:21;2.10;;;0.80;;
24357;SDS011;13668;52.154;5.580;2023-05-19T09:43:53;1.77;;;0.50;;
24357;SDS011;13668;52.154;5.580;2023-05-19T09:46:23;1.27;;;0.68;;
24357;SDS011;13668;52.154;5.580;2023-05-19T09:48:58;1.17;;;0.65;;
24357;SDS011;13668;52.154;5.580;2023-05-19T09:51:24;1.80;;;1.05;;
24357;SDS011;13668;52.154;5.580;2023-05-19T09:53:50;1.38;;;0.90;;
24357;SDS011;13668;52.154;5.580;2023-05-19T09:56:16;1.60;;;0.85;;
24357;SDS011;13668;52.154;5.580;2023-05-19T09:58:47;0.52;;;0.52;;
24357;SDS011;13668;52.154;5.580;2023-05-19T10:01:13;1.50;;;0.90;;
24357;SDS011;13668;52.154;5.580;2023-05-19T10:03:39;1.75;;;0.90;;
24357;SDS011;13668;52.154;5.580;2023-05-19T10:06:06;3.30;;;0.70;;
24357;SDS011;13668;52.154;5.580;2023-05-19T10:08:33;1.80;;;0.85;;
24357;SDS011;13668;52.154;5.580;2023-05-19T10:10:59;1.85;;;0.90;;
24357;SDS011;13668;52.154;5.580;2023-05-19T10:13:26;0.57;;;0.52;;
24357;SDS011;13668;52.154;5.580;2023-05-19T10:15:53;1.45;;;0.82;;
24357;SDS011;13668;52.154;5.580;2023-05-19T10:18:20;1.92;;;1.13;;
24357;SDS011;13668;52.154;5.580;2023-05-19T10:20:47;1.17;;;1.08;;
24357;SDS011;13668;52.154;5.580;2023-05-19T10:23:15;1.52;;;0.50;;
24357;SDS011;13668;52.154;5.580;2023-05-19T10:25:41;2.53;;;0.60;;
24357;SDS011;13668;52.154;5.580;2023-05-19T10:28:11;2.33;;;0.75;;
24357;SDS011;13668;52.154;5.580;2023-05-19T10:30:38;1.27;;;0.63;;
24357;SDS011;13668;52.154;5.580;2023-05-19T10:33:06;1.50;;;0.98;;
24357;SDS011;13668;52.154;5.580;2023-05-19T10:38:20;1.08;;;0.77;;
24357;SDS011;13668;52.154;5.580;2023-05-19T10:43:24;1.17;;;0.93;;
24357;SDS011;13668;52.154;5.580;2023-05-19T10:45:50;1.10;;;0.85;;
24357;SDS011;13668;52.154;5.580;2023-05-19T10:48:18;1.63;;;0.82;;
24357;SDS011;13668;52.154;5.580;2023-05-19T10:50:44;0.75;;;0.70;;
24357;SDS011;13668;52.154;5.580;2023-05-19T10:53:14;0.55;;;0.55;;
24357;SDS011;13668;52.154;5.580;2023-05-19T10:58:11;6.82;;;1.80;;
24357;SDS011;13668;52.154;5.580;2023-05-19T11:00:37;4.57;;;0.90;;
24357;SDS011;13668;52.154;5.580;2023-05-19T11:05:37;1.45;;;0.50;;
24357;SDS011;13668;52.154;5.580;2023-05-19T11:08:04;1.35;;;0.70;;
24357;SDS011;13668;52.154;5.580;2023-05-19T11:10:36;3.70;;;0.75;;
24357;SDS011;13668;52.154;5.580;2023-05-19T11:13:03;1.30;;;0.90;;
24357;SDS011;13668;52.154;5.580;2023-05-19T11:15:32;1.10;;;0.68;;
24357;SDS011;13668;52.154;5.580;2023-05-19T11:17:58;4.65;;;1.35;;
24357;SDS011;13668;52.154;5.580;2023-05-19T11:20:26;0.60;;;0.60;;
24357;SDS011;13668;52.154;5.580;2023-05-19T11:23:08;1.00;;;0.60;;
24357;SDS011;13668;52.154;5.580;2023-05-19T11:25:53;0.68;;;0.65;;
24357;SDS011;13668;52.154;5.580;2023-05-19T11:28:22;0.68;;;0.68;;
24357;SDS011;13668;52.154;5.580;2023-05-19T11:30:53;3.05;;;1.10;;
24357;SDS011;13668;52.154;5.580;2023-05-19T11:33:21;1.65;;;0.93;;
24357;SDS011;13668;52.154;5.580;2023-05-19T11:35:51;1.05;;;0.95;;
24357;SDS011;13668;52.154;5.580;2023-05-19T11:38:18;3.65;;;1.05;;
24357;SDS011;13668;52.154;5.580;2023-05-19T11:40:44;2.83;;;0.77;;
24357;SDS011;13668;52.154;5.580;2023-05-19T11:43:11;1.33;;;1.15;;
24357;SDS011;13668;52.154;5.580;2023-05-19T11:45:37;1.85;;;0.80;;
24357;SDS011;13668;52.154;5.580;2023-05-19T11:48:03;1.40;;;1.10;;
24357;SDS011;13668;52.154;5.580;2023-05-19T11:50:31;3.03;;;0.90;;
24357;SDS011;13668;52.154;5.580;2023-05-19T11:52:58;1.10;;;0.90;;
24357;SDS011;13668;52.154;5.580;2023-05-19T11:55:24;2.63;;;0.70;;
24357;SDS011;13668;52.154;5.580;2023-05-19T11:57:57;1.75;;;0.63;;
24357;SDS011;13668;52.154;5.580;2023-05-19T12:00:26;3.22;;;1.42;;
24357;SDS011;13668;52.154;5.580;2023-05-19T12:02:52;1.00;;;0.80;;
24357;SDS011;13668;52.154;5.580;2023-05-19T12:05:22;2.42;;;0.93;;
24357;SDS011;13668;52.154;5.580;2023-05-19T12:07:48;0.95;;;0.90;;
24357;SDS011;13668;52.154;5.580;2023-05-19T12:10:25;0.68;;;0.68;;
24357;SDS011;13668;52.154;5.580;2023-05-19T12:12:52;3.88;;;1.50;;
24357;SDS011;13668;52.154;5.580;2023-05-19T12:15:21;1.27;;;1.08;;
24357;SDS011;13668;52.154;5.580;2023-05-19T12:17:48;2.67;;;1.15;;
24357;SDS011;13668;52.154;5.580;2023-05-19T12:20:14;2.58;;;0.75;;
24357;SDS011;13668;52.154;5.580;2023-05-19T12:22:40;0.80;;;0.63;;
24357;SDS011;13668;52.154;5.580;2023-05-19T12:25:06;1.17;;;0.82;;
24357;SDS011;13668;52.154;5.580;2023-05-19T12:27:34;3.60;;;0.73;;
24357;SDS011;13668;52.154;5.580;2023-05-19T12:30:02;2.15;;;0.73;;
24357;SDS011;13668;52.154;5.580;2023-05-19T12:32:28;0.68;;;0.63;;
24357;SDS011;13668;52.154;5.580;2023-05-19T12:34:58;0.80;;;0.80;;
24357;SDS011;13668;52.154;5.580;2023-05-19T12:37:27;1.65;;;0.93;;
24357;SDS011;13668;52.154;5.580;2023-05-19T12:39:57;3.22;;;1.05;;
24357;SDS011;13668;52.154;5.580;2023-05-19T12:42:25;2.22;;;0.57;;
24357;SDS011;13668;52.154;5.580;2023-05-19T12:44:54;1.70;;;0.73;;
24357;SDS011;13668;52.154;5.580;2023-05-19T12:47:21;0.63;;;0.52;;
24357;SDS011;13668;52.154;5.580;2023-05-19T12:50:06;1.00;;;0.90;;
24357;SDS011;13668;52.154;5.580;2023-05-19T12:52:33;2.28;;;0.73;;
24357;SDS011;13668;52.154;5.580;2023-05-19T12:55:03;2.33;;;0.90;;
24357;SDS011;13668;52.154;5.580;2023-05-19T12:57:33;1.40;;;0.98;;
24357;SDS011;13668;52.154;5.580;2023-05-19T13:00:06;1.60;;;0.68;;
24357;SDS011;13668;52.154;5.580;2023-05-19T13:02:34;1.20;;;0.73;;
24357;SDS011;13668;52.154;5.580;2023-05-19T13:05:01;2.65;;;1.05;;
24357;SDS011;13668;52.154;5.580;2023-05-19T13:07:28;0.88;;;0.70;;
24357;SDS011;13668;52.154;5.580;2023-05-19T13:09:54;1.23;;;0.55;;
24357;SDS011;13668;52.154;5.580;2023-05-19T13:12:20;2.47;;;0.90;;
24357;SDS011;13668;52.154;5.580;2023-05-19T13:14:46;2.58;;;0.98;;
24357;SDS011;13668;52.154;5.580;2023-05-19T13:17:12;0.90;;;0.70;;
24357;SDS011;13668;52.154;5.580;2023-05-19T13:19:38;2.28;;;0.77;;
24357;SDS011;13668;52.154;5.580;2023-05-19T13:22:04;1.33;;;0.60;;
24357;SDS011;13668;52.154;5.580;2023-05-19T13:24:30;0.93;;;0.82;;
24357;SDS011;13668;52.154;5.580;2023-05-19T13:26:56;1.83;;;0.90;;
24357;SDS011;13668;52.154;5.580;2023-05-19T13:29:22;2.85;;;1.05;;
24357;SDS011;13668;52.154;5.580;2023-05-19T13:31:48;1.05;;;0.70;;
24357;SDS011;13668;52.154;5.580;2023-05-19T13:34:14;1.30;;;0.70;;
24357;SDS011;13668;52.154;5.580;2023-05-19T13:36:41;0.93;;;0.70;;
24357;SDS011;13668;52.154;5.580;2023-05-19T13:39:11;1.55;;;1.02;;
24357;SDS011;13668;52.154;5.580;2023-05-19T13:41:37;0.98;;;0.60;;
24357;SDS011;13668;52.154;5.580;2023-05-19T13:44:03;1.60;;;1.02;;
24357;SDS011;13668;52.154;5.580;2023-05-19T13:46:29;1.42;;;0.98;;
24357;SDS011;13668;52.154;5.580;2023-05-19T13:48:58;2.63;;;1.00;;
24357;SDS011;13668;52.154;5.580;2023-05-19T13:51:24;2.03;;;1.20;;
24357;SDS011;13668;52.154;5.580;2023-05-19T13:53:50;2.85;;;1.27;;
24357;SDS011;13668;52.154;5.580;2023-05-19T13:56:16;1.17;;;0.85;;
24357;SDS011;13668;52.154;5.580;2023-05-19T13:58:42;0.88;;;0.63;;
24357;SDS011;13668;52.154;5.580;2023-05-19T14:01:08;1.13;;;0.90;;
24357;SDS011;13668;52.154;5.580;2023-05-19T14:03:34;3.55;;;1.20;;
24357;SDS011;13668;52.154;5.580;2023-05-19T14:06:01;1.35;;;0.60;;
24357;SDS011;13668;52.154;5.580;2023-05-19T14:08:27;1.67;;;1.58;;
24357;SDS011;13668;52.154;5.580;2023-05-19T14:10:53;1.38;;;0.90;;
24357;SDS011;13668;52.154;5.580;2023-05-19T14:13:19;1.30;;;1.20;;
24357;SDS011;13668;52.154;5.580;2023-05-19T14:15:46;1.05;;;0.60;;
24357;SDS011;13668;52.154;5.580;2023-05-19T14:18:12;1.58;;;0.90;;
24357;SDS011;13668;52.154;5.580;2023-05-19T14:20:39;3.60;;;1.10;;
24357;SDS011;13668;52.154;5.580;2023-05-19T14:23:05;0.80;;;0.80;;
24357;SDS011;13668;52.154;5.580;2023-05-19T14:25:31;1.35;;;1.02;;
24357;SDS011;13668;52.154;5.580;2023-05-19T14:27:57;1.15;;;0.75;;
24357;SDS011;13668;52.154;5.580;2023-05-19T14:30:23;1.33;;;0.88;;
24357;SDS011;13668;52.154;5.580;2023-05-19T14:32:49;1.00;;;0.60;;
24357;SDS011;13668;52.154;5.580;2023-05-19T14:35:15;0.80;;;0.80;;
24357;SDS011;13668;52.154;5.580;2023-05-19T14:37:41;2.80;;;1.75;;
24357;SDS011;13668;52.154;5.580;2023-05-19T14:40:07;0.73;;;0.60;;
24357;SDS011;13668;52.154;5.580;2023-05-19T14:42:33;0.73;;;0.55;;
24357;SDS011;13668;52.154;5.580;2023-05-19T14:44:59;1.52;;;0.63;;
24357;SDS011;13668;52.154;5.580;2023-05-19T14:47:25;0.82;;;0.82;;
24357;SDS011;13668;52.154;5.580;2023-05-19T14:49:51;1.33;;;1.02;;
24357;SDS011;13668;52.154;5.580;2023-05-19T14:52:17;2.78;;;1.02;;
24357;SDS011;13668;52.154;5.580;2023-05-19T14:54:43;1.27;;;0.80;;
24357;SDS011;13668;52.154;5.580;2023-05-19T14:57:09;3.90;;;1.55;;
24357;SDS011;13668;52.154;5.580;2023-05-19T14:59:36;1.85;;;0.80;;
24357;SDS011;13668;52.154;5.580;2023-05-19T15:02:02;0.57;;;0.57;;
24357;SDS011;13668;52.154;5.580;2023-05-19T15:04:29;1.05;;;0.60;;
24357;SDS011;13668;52.154;5.580;2023-05-19T15:06:55;1.05;;;0.70;;
24357;SDS011;13668;52.154;5.580;2023-05-19T15:09:22;1.85;;;0.68;;
24357;SDS011;13668;52.154;5.580;2023-05-19T15:11:48;0.63;;;0.63;;
24357;SDS011;13668;52.154;5.580;2023-05-19T15:14:14;2.00;;;0.75;;
24357;SDS011;13668;52.154;5.580;2023-05-19T15:16:40;1.92;;;0.90;;